Time;durP1;ratioP1;P1;durP2;ratioP2;P2;SDS_P1;SDS_P2;PMS_P1;PMS_P2;Temp;Humidity;BMP_temperature;BMP_pressure;BME280_temperature;BME280_humidity;BME280_pressure;Samples;Min_cycle;Max_cycle;Signal;HPM_P1;HPM_P2
2022/06/28 00:01:36;;;;;;;12.30;8.13;;;;;;;;;;5036012;28;20606;-75
2022/06/28 00:04:01;;;;;;;10.48;8.15;;;;;;;;;;5024684;28;20029;-75
2022/06/28 00:06:26;;;;;;;11.70;8.03;;;;;;;;;;5026252;28;20052;-75
2022/06/28 00:08:51;;;;;;;7.80;6.97;;;;;;;;;;5025690;28;20614;-75
2022/06/28 00:11:17;;;;;;;12.90;9.07;;;;;;;;;;5024827;28;20483;-76
2022/06/28 00:13:42;;;;;;;14.18;10.00;;;;;;;;;;5032737;28;20053;-75
2022/06/28 00:16:07;;;;;;;16.53;10.43;;;;;;;;;;5025716;28;20121;-76
2022/06/28 00:18:36;;;;;;;12.18;9.07;;;;;;;;;;5028064;28;20270;-75
2022/06/28 00:21:02;;;;;;;12.18;9.80;;;;;;;;;;5028399;28;20029;-76
2022/06/28 00:23:28;;;;;;;10.85;8.45;;;;;;;;;;5028357;28;20407;-75
2022/06/28 00:25:53;;;;;;;11.82;8.50;;;;;;;;;;5030093;28;20021;-76
2022/06/28 00:28:19;;;;;;;10.88;9.40;;;;;;;;;;5026816;28;20079;-75
2022/06/28 00:30:44;;;;;;;12.55;9.23;;;;;;;;;;5027224;28;20779;-75
2022/06/28 00:33:09;;;;;;;20.53;9.83;;;;;;;;;;5026231;28;20057;-75
2022/06/28 00:35:34;;;;;;;13.30;9.73;;;;;;;;;;5029419;28;20235;-75
2022/06/28 00:38:00;;;;;;;12.55;9.30;;;;;;;;;;5023950;28;20264;-75
2022/06/28 00:40:25;;;;;;;14.57;11.25;;;;;;;;;;5022670;28;20416;-76
2022/06/28 00:42:51;;;;;;;17.65;10.50;;;;;;;;;;5023550;28;20057;-76
2022/06/28 00:45:16;;;;;;;16.58;11.38;;;;;;;;;;5020871;28;20056;-75
2022/06/28 00:47:41;;;;;;;19.17;11.50;;;;;;;;;;5022980;28;20016;-75
2022/06/28 00:50:07;;;;;;;19.77;10.63;;;;;;;;;;5018336;28;20541;-75
2022/06/28 00:52:32;;;;;;;12.77;9.88;;;;;;;;;;5019619;28;20025;-76
2022/06/28 00:54:57;;;;;;;15.95;11.30;;;;;;;;;;5023307;28;20021;-75
2022/06/28 00:57:22;;;;;;;13.50;10.30;;;;;;;;;;5020041;28;20017;-76
2022/06/28 00:59:48;;;;;;;12.50;9.37;;;;;;;;;;5020817;28;20079;-76
2022/06/28 01:02:13;;;;;;;12.95;10.10;;;;;;;;;;5023996;28;20281;-75
2022/06/28 01:04:38;;;;;;;18.08;10.00;;;;;;;;;;5018574;28;20013;-75
2022/06/28 01:07:05;;;;;;;10.10;8.32;;;;;;;;;;5024102;28;20052;-75
2022/06/28 01:09:30;;;;;;;9.60;8.57;;;;;;;;;;5026282;28;20172;-76
2022/06/28 01:11:55;;;;;;;13.00;8.52;;;;;;;;;;5027019;28;20365;-75
2022/06/28 01:14:23;;;;;;;9.48;8.48;;;;;;;;;;5015024;28;20057;-75
2022/06/28 01:16:48;;;;;;;10.60;8.77;;;;;;;;;;5014125;28;20037;-75
2022/06/28 01:19:14;;;;;;;12.68;9.23;;;;;;;;;;5019669;28;20028;-75
2022/06/28 01:21:39;;;;;;;13.32;9.38;;;;;;;;;;5020958;28;20376;-75
2022/06/28 01:24:05;;;;;;;10.95;9.05;;;;;;;;;;5019801;28;20135;-75
2022/06/28 01:26:31;;;;;;;11.30;9.43;;;;;;;;;;5020108;28;20040;-75
2022/06/28 01:28:56;;;;;;;11.85;9.63;;;;;;;;;;5019995;28;20037;-75
2022/06/28 01:31:21;;;;;;;14.65;9.75;;;;;;;;;;5021074;28;20021;-75
2022/06/28 01:33:47;;;;;;;9.40;8.40;;;;;;;;;;5019655;28;20037;-75
2022/06/28 01:36:13;;;;;;;10.35;8.20;;;;;;;;;;5018732;28;20055;-75
2022/06/28 01:38:39;;;;;;;12.25;9.38;;;;;;;;;;5017996;28;20109;-75
2022/06/28 01:41:04;;;;;;;12.73;9.32;;;;;;;;;;5022734;28;20387;-75
2022/06/28 01:43:29;;;;;;;10.63;8.35;;;;;;;;;;5036578;28;20033;-76
2022/06/28 01:45:55;;;;;;;11.55;8.40;;;;;;;;;;5023939;28;20108;-76
2022/06/28 01:48:20;;;;;;;10.57;7.72;;;;;;;;;;5019191;28;20056;-75
2022/06/28 01:50:46;;;;;;;12.45;8.40;;;;;;;;;;5017109;28;20284;-76
2022/06/28 01:53:11;;;;;;;12.90;7.68;;;;;;;;;;5021436;28;20123;-76
2022/06/28 01:55:36;;;;;;;10.83;8.77;;;;;;;;;;5022940;28;20100;-75
2022/06/28 01:58:01;;;;;;;11.77;8.27;;;;;;;;;;5016802;28;20352;-75
2022/06/28 02:00:27;;;;;;;12.52;9.70;;;;;;;;;;5020302;28;20455;-76
2022/06/28 02:02:52;;;;;;;14.63;9.60;;;;;;;;;;5024771;28;20053;-76
2022/06/28 02:05:17;;;;;;;11.20;9.00;;;;;;;;;;5021490;28;20472;-76
2022/06/28 02:07:47;;;;;;;13.93;8.77;;;;;;;;;;5023921;28;20108;-76
2022/06/28 02:10:12;;;;;;;11.35;9.13;;;;;;;;;;5029568;28;20274;-76
2022/06/28 02:12:37;;;;;;;10.35;7.85;;;;;;;;;;5026543;28;20018;-76
2022/06/28 02:15:03;;;;;;;11.30;8.18;;;;;;;;;;5020509;28;20057;-76
2022/06/28 02:17:28;;;;;;;11.95;8.25;;;;;;;;;;5025052;28;20026;-76
2022/06/28 02:19:54;;;;;;;10.88;8.00;;;;;;;;;;5022773;28;20519;-76
2022/06/28 02:22:19;;;;;;;10.07;8.45;;;;;;;;;;5027949;28;20101;-76
2022/06/28 02:24:44;;;;;;;13.23;9.10;;;;;;;;;;5026858;28;20186;-76
2022/06/28 02:27:09;;;;;;;11.68;8.75;;;;;;;;;;5022251;28;20275;-76
2022/06/28 02:29:35;;;;;;;14.27;8.70;;;;;;;;;;5025724;28;20076;-76
2022/06/28 02:32:00;;;;;;;10.73;7.57;;;;;;;;;;5026372;28;20286;-75
2022/06/28 02:42:37;;;;;;;11.23;7.38;;;;;;;;;;5027989;28;20102;-76
2022/06/28 02:45:02;;;;;;;8.93;7.20;;;;;;;;;;5024502;28;20498;-75
2022/06/28 02:47:27;;;;;;;10.20;7.82;;;;;;;;;;5033443;28;20033;-75
2022/06/28 02:49:52;;;;;;;10.75;8.25;;;;;;;;;;5031821;28;20036;-76
2022/06/28 02:52:17;;;;;;;14.33;8.90;;;;;;;;;;5028497;28;20393;-76
2022/06/28 02:54:43;;;;;;;15.13;9.40;;;;;;;;;;5037278;28;20109;-76
2022/06/28 02:57:08;;;;;;;12.77;9.10;;;;;;;;;;5023377;28;20076;-75
2022/06/28 02:59:33;;;;;;;13.87;9.13;;;;;;;;;;5024796;28;20277;-76
2022/06/28 03:01:58;;;;;;;13.55;9.45;;;;;;;;;;5018686;28;20328;-76
2022/06/28 03:04:24;;;;;;;13.43;9.05;;;;;;;;;;5037902;28;20543;-76
2022/06/28 03:06:49;;;;;;;15.48;9.57;;;;;;;;;;5020788;28;20108;-76
2022/06/28 03:09:14;;;;;;;14.50;9.27;;;;;;;;;;5021511;28;20032;-77
2022/06/28 03:11:40;;;;;;;12.73;9.23;;;;;;;;;;5025141;28;20864;-78
2022/06/28 03:14:05;;;;;;;12.68;8.45;;;;;;;;;;5021373;28;20030;-75
2022/06/28 03:16:30;;;;;;;12.18;9.45;;;;;;;;;;5015432;28;20021;-75
2022/06/28 03:18:55;;;;;;;14.40;9.50;;;;;;;;;;5025482;28;20033;-75
2022/06/28 03:21:20;;;;;;;14.40;9.87;;;;;;;;;;5021931;28;20827;-76
2022/06/28 03:23:46;;;;;;;21.33;8.77;;;;;;;;;;5016872;28;20271;-76
2022/06/28 03:26:11;;;;;;;11.90;8.60;;;;;;;;;;5019066;28;20049;-76
2022/06/28 03:28:36;;;;;;;14.80;9.87;;;;;;;;;;5024927;28;20262;-75
2022/06/28 03:31:01;;;;;;;13.93;8.93;;;;;;;;;;5017297;28;20270;-76
2022/06/28 03:33:26;;;;;;;14.55;8.68;;;;;;;;;;5023259;28;20814;-76
2022/06/28 03:35:52;;;;;;;15.15;9.43;;;;;;;;;;5019772;28;20083;-76
2022/06/28 03:38:17;;;;;;;13.93;9.27;;;;;;;;;;5021585;28;20048;-76
2022/06/28 03:40:42;;;;;;;13.50;9.23;;;;;;;;;;5019672;28;20263;-76
2022/06/28 03:43:07;;;;;;;11.47;8.07;;;;;;;;;;5020509;28;20413;-76
2022/06/28 03:45:32;;;;;;;10.33;7.67;;;;;;;;;;5021611;28;20278;-76
2022/06/28 03:47:57;;;;;;;13.20;9.23;;;;;;;;;;5019393;28;20280;-76
2022/06/28 03:50:26;;;;;;;12.17;8.80;;;;;;;;;;5019242;28;20370;-75
2022/06/28 03:52:51;;;;;;;12.73;9.48;;;;;;;;;;5019523;28;20026;-76
2022/06/28 03:55:16;;;;;;;12.70;9.10;;;;;;;;;;5028222;28;20022;-76
2022/06/28 03:57:42;;;;;;;14.68;8.80;;;;;;;;;;5023953;28;20555;-75
2022/06/28 04:00:07;;;;;;;12.27;9.90;;;;;;;;;;5024795;28;20061;-76
2022/06/28 04:02:33;;;;;;;12.15;9.13;;;;;;;;;;5021884;28;20451;-75
2022/06/28 04:04:58;;;;;;;16.77;10.18;;;;;;;;;;5022170;28;20021;-76
2022/06/28 04:07:23;;;;;;;13.88;8.75;;;;;;;;;;5021401;28;20029;-75
2022/06/28 04:09:48;;;;;;;15.20;8.75;;;;;;;;;;5022388;28;20033;-75
2022/06/28 04:12:14;;;;;;;15.88;10.38;;;;;;;;;;5018767;28;20041;-75
2022/06/28 04:14:39;;;;;;;18.92;9.80;;;;;;;;;;5024060;28;20131;-76
2022/06/28 04:17:04;;;;;;;12.67;9.27;;;;;;;;;;5016793;28;20029;-75
2022/06/28 04:19:29;;;;;;;14.32;10.30;;;;;;;;;;5021074;28;20302;-76
2022/06/28 04:21:54;;;;;;;16.58;10.10;;;;;;;;;;5020101;28;20220;-76
2022/06/28 04:24:19;;;;;;;17.90;9.53;;;;;;;;;;5022965;28;20621;-75
2022/06/28 04:26:45;;;;;;;16.23;11.05;;;;;;;;;;5016735;28;20378;-76
2022/06/28 04:29:10;;;;;;;18.40;11.18;;;;;;;;;;5022186;28;20132;-76
2022/06/28 04:31:35;;;;;;;19.07;11.13;;;;;;;;;;5019638;28;20067;-74
2022/06/28 04:34:00;;;;;;;17.83;10.60;;;;;;;;;;5019890;28;20270;-73
2022/06/28 04:36:28;;;;;;;16.80;11.53;;;;;;;;;;5019805;28;20022;-72
2022/06/28 04:38:54;;;;;;;18.15;10.93;;;;;;;;;;5016074;28;20281;-74
2022/06/28 04:41:23;;;;;;;19.98;11.00;;;;;;;;;;5025910;28;20325;-75
2022/06/28 04:43:49;;;;;;;19.50;11.50;;;;;;;;;;5021644;28;20490;-74
2022/06/28 04:46:14;;;;;;;17.70;10.38;;;;;;;;;;5022589;28;20491;-76
2022/06/28 04:48:39;;;;;;;21.73;11.25;;;;;;;;;;5024651;28;20021;-75
2022/06/28 04:51:13;;;;;;;19.27;10.93;;;;;;;;;;5019361;28;20017;-82
2022/06/28 04:53:40;;;;;;;22.05;11.60;;;;;;;;;;5034311;28;20285;-75
2022/06/28 04:56:05;;;;;;;20.33;12.90;;;;;;;;;;5037201;28;20036;-77
2022/06/28 04:58:30;;;;;;;31.73;10.95;;;;;;;;;;5030077;28;20021;-76
2022/06/28 05:00:55;;;;;;;17.70;11.20;;;;;;;;;;5017849;28;20025;-75
2022/06/28 05:03:20;;;;;;;17.35;10.88;;;;;;;;;;5042746;28;20022;-76
2022/06/28 05:05:47;;;;;;;18.83;10.18;;;;;;;;;;5022803;28;20782;-75
2022/06/28 05:08:12;;;;;;;15.23;9.27;;;;;;;;;;5020464;28;20459;-75
2022/06/28 05:10:37;;;;;;;16.15;8.57;;;;;;;;;;5027606;28;20128;-74
2022/06/28 05:13:03;;;;;;;18.40;9.80;;;;;;;;;;5031390;28;20120;-75
2022/06/28 05:15:29;;;;;;;13.45;9.52;;;;;;;;;;5027977;28;20481;-75
2022/06/28 05:17:54;;;;;;;19.15;9.70;;;;;;;;;;5018233;28;20037;-74
2022/06/28 05:20:19;;;;;;;20.25;8.93;;;;;;;;;;5024406;28;20104;-75
2022/06/28 05:22:44;;;;;;;12.23;8.73;;;;;;;;;;5019698;28;20052;-76
2022/06/28 05:25:10;;;;;;;13.93;9.80;;;;;;;;;;5025530;28;20112;-75
2022/06/28 05:27:36;;;;;;;17.25;9.10;;;;;;;;;;5024931;28;20624;-75
2022/06/28 05:30:01;;;;;;;12.75;8.63;;;;;;;;;;5018917;28;20029;-75
2022/06/28 05:32:26;;;;;;;15.10;8.68;;;;;;;;;;5021558;28;20051;-73
2022/06/28 05:34:51;;;;;;;19.50;9.52;;;;;;;;;;5023532;28;20120;-73
2022/06/28 05:37:17;;;;;;;16.13;8.53;;;;;;;;;;5028214;28;20044;-71
2022/06/28 05:39:42;;;;;;;17.52;8.48;;;;;;;;;;5030033;28;20282;-74
2022/06/28 05:42:08;;;;;;;14.60;8.35;;;;;;;;;;5033322;28;20052;-74
2022/06/28 05:44:33;;;;;;;14.00;7.93;;;;;;;;;;5026232;28;20104;-72
2022/06/28 05:46:58;;;;;;;15.50;8.93;;;;;;;;;;5022987;28;20683;-73
2022/06/28 05:49:23;;;;;;;15.57;8.20;;;;;;;;;;5018435;28;20037;-73
2022/06/28 05:51:48;;;;;;;15.80;8.37;;;;;;;;;;5023068;28;20453;-74
2022/06/28 05:54:13;;;;;;;14.60;8.10;;;;;;;;;;5021919;28;20274;-75
2022/06/28 05:56:39;;;;;;;16.00;7.63;;;;;;;;;;5029800;28;20017;-76
2022/06/28 05:59:04;;;;;;;22.40;7.65;;;;;;;;;;5025276;28;20475;-75
2022/06/28 06:01:29;;;;;;;13.65;7.90;;;;;;;;;;5026869;28;20026;-76
2022/06/28 06:03:56;;;;;;;14.43;7.18;;;;;;;;;;5024791;28;20036;-77
2022/06/28 06:06:23;;;;;;;19.63;8.00;;;;;;;;;;5020416;28;20025;-77
2022/06/28 06:08:48;;;;;;;13.43;8.23;;;;;;;;;;5019449;28;20026;-78
2022/06/28 06:11:14;;;;;;;14.60;6.85;;;;;;;;;;5036861;28;20025;-77
2022/06/28 06:13:39;;;;;;;12.33;6.90;;;;;;;;;;5032028;28;20363;-78
2022/06/28 06:16:04;;;;;;;10.85;7.07;;;;;;;;;;5028720;28;20262;-77
2022/06/28 06:18:29;;;;;;;12.90;6.72;;;;;;;;;;5018999;28;20484;-77
2022/06/28 06:20:55;;;;;;;17.63;7.07;;;;;;;;;;5026576;28;20070;-77
2022/06/28 06:23:20;;;;;;;16.08;7.18;;;;;;;;;;5023460;28;20032;-75
2022/06/28 06:25:45;;;;;;;16.97;6.43;;;;;;;;;;5029953;28;20444;-77
2022/06/28 06:28:10;;;;;;;11.53;5.53;;;;;;;;;;5020932;28;20266;-78
2022/06/28 06:30:36;;;;;;;9.00;5.72;;;;;;;;;;5016894;28;20319;-79
2022/06/28 06:33:01;;;;;;;14.93;4.93;;;;;;;;;;5018751;28;20108;-77
2022/06/28 06:35:27;;;;;;;14.48;5.10;;;;;;;;;;5015194;28;20067;-78
2022/06/28 06:37:53;;;;;;;8.32;4.82;;;;;;;;;;5017198;28;20101;-78
2022/06/28 06:40:19;;;;;;;15.88;5.72;;;;;;;;;;5023042;28;20028;-78
2022/06/28 06:42:44;;;;;;;8.57;5.15;;;;;;;;;;5026429;28;20017;-78
2022/06/28 06:45:10;;;;;;;14.18;5.03;;;;;;;;;;5019852;28;20030;-79
2022/06/28 06:47:35;;;;;;;9.27;4.50;;;;;;;;;;5019249;28;20029;-76
2022/06/28 06:50:01;;;;;;;11.70;4.53;;;;;;;;;;5023034;28;20048;-78
2022/06/28 06:52:26;;;;;;;10.68;5.05;;;;;;;;;;5028710;28;20030;-79
2022/06/28 06:54:51;;;;;;;13.77;4.47;;;;;;;;;;5021511;28;20029;-78
2022/06/28 06:57:16;;;;;;;12.10;5.10;;;;;;;;;;5025020;28;20033;-77
2022/06/28 06:59:41;;;;;;;10.20;4.90;;;;;;;;;;5019461;28;20036;-77
2022/06/28 07:02:08;;;;;;;8.20;4.30;;;;;;;;;;5021983;28;20290;-77
2022/06/28 07:04:33;;;;;;;18.35;5.70;;;;;;;;;;5028262;28;20094;-80
2022/06/28 07:07:00;;;;;;;13.93;4.53;;;;;;;;;;5026520;28;20033;-75
2022/06/28 07:09:25;;;;;;;12.75;4.55;;;;;;;;;;5026303;28;20022;-76
2022/06/28 07:11:50;;;;;;;12.83;4.20;;;;;;;;;;5027501;28;20033;-79
2022/06/28 07:14:15;;;;;;;8.57;3.40;;;;;;;;;;5028256;28;20263;-78
2022/06/28 07:16:41;;;;;;;8.27;3.43;;;;;;;;;;5028901;28;20337;-80
2022/06/28 07:19:06;;;;;;;11.27;3.87;;;;;;;;;;5032268;28;20034;-76
2022/06/28 07:21:31;;;;;;;11.27;4.80;;;;;;;;;;5039506;28;20032;-79
2022/06/28 07:23:56;;;;;;;12.77;3.80;;;;;;;;;;5032913;28;20021;-76
2022/06/28 07:26:22;;;;;;;9.90;3.80;;;;;;;;;;5027187;28;20278;-75
2022/06/28 07:28:47;;;;;;;11.13;3.88;;;;;;;;;;5029474;28;20366;-75
2022/06/28 07:31:12;;;;;;;12.95;3.92;;;;;;;;;;5028163;28;20199;-78
2022/06/28 07:33:37;;;;;;;14.27;3.75;;;;;;;;;;5030543;28;20108;-76
2022/06/28 07:36:03;;;;;;;9.73;4.20;;;;;;;;;;5023294;28;20025;-77
2022/06/28 07:38:29;;;;;;;7.70;3.70;;;;;;;;;;5025660;28;20407;-77
2022/06/28 07:40:55;;;;;;;9.90;3.20;;;;;;;;;;5024368;28;20044;-78
2022/06/28 07:43:21;;;;;;;9.35;2.83;;;;;;;;;;5027740;28;20029;-75
2022/06/28 07:45:46;;;;;;;12.13;3.80;;;;;;;;;;5019744;28;20037;-74
2022/06/28 07:48:11;;;;;;;9.10;3.30;;;;;;;;;;5020162;28;20033;-75
2022/06/28 07:53:20;;;;;;;10.07;3.95;;;;;;;;;;5032342;28;20087;-75
2022/06/28 07:55:46;;;;;;;9.48;3.67;;;;;;;;;;5021271;28;20411;-76
2022/06/28 07:58:11;;;;;;;14.80;4.03;;;;;;;;;;5024683;28;20037;-76
2022/06/28 08:00:36;;;;;;;13.88;4.00;;;;;;;;;;5025514;28;20037;-76
2022/06/28 08:03:02;;;;;;;9.40;3.77;;;;;;;;;;5024954;28;20479;-75
2022/06/28 08:05:27;;;;;;;7.97;3.20;;;;;;;;;;5024745;28;20029;-74
2022/06/28 08:07:52;;;;;;;11.50;3.00;;;;;;;;;;5026758;28;20031;-79
2022/06/28 08:10:17;;;;;;;8.37;2.90;;;;;;;;;;5028905;28;20270;-75
2022/06/28 08:12:43;;;;;;;8.57;3.47;;;;;;;;;;5024147;28;20542;-76
2022/06/28 08:15:08;;;;;;;9.10;3.60;;;;;;;;;;5029568;28;20564;-77
2022/06/28 08:17:34;;;;;;;6.70;3.20;;;;;;;;;;5022068;28;20068;-78
2022/06/28 08:19:59;;;;;;;6.63;3.08;;;;;;;;;;5019941;28;20107;-76
2022/06/28 08:22:24;;;;;;;9.05;2.60;;;;;;;;;;5024929;28;20395;-76
2022/06/28 08:24:49;;;;;;;8.18;2.58;;;;;;;;;;5028207;28;20029;-78
2022/06/28 08:27:15;;;;;;;4.75;2.83;;;;;;;;;;5029561;28;20490;-77
2022/06/28 08:29:42;;;;;;;7.77;2.90;;;;;;;;;;5030460;28;20021;-79
2022/06/28 08:32:08;;;;;;;6.18;2.55;;;;;;;;;;5017138;28;20468;-77
2022/06/28 08:34:33;;;;;;;7.55;2.70;;;;;;;;;;5029228;28;20486;-75
2022/06/28 08:36:59;;;;;;;5.07;2.70;;;;;;;;;;5025963;28;20024;-76
2022/06/28 08:39:24;;;;;;;5.07;2.28;;;;;;;;;;5021472;28;20258;-74
2022/06/28 08:41:50;;;;;;;4.17;2.43;;;;;;;;;;5027430;28;20040;-75
2022/06/28 08:44:17;;;;;;;5.95;2.15;;;;;;;;;;5026529;28;20277;-76
2022/06/28 08:46:43;;;;;;;5.40;2.15;;;;;;;;;;5015557;28;20021;-78
2022/06/28 08:49:13;;;;;;;5.35;2.22;;;;;;;;;;5023073;28;20026;-79
2022/06/28 08:51:38;;;;;;;5.57;2.00;;;;;;;;;;5024336;28;20025;-76
2022/06/28 08:54:04;;;;;;;4.50;1.40;;;;;;;;;;5026238;28;20456;-78
2022/06/28 08:56:29;;;;;;;5.90;1.77;;;;;;;;;;5025378;28;20210;-77
2022/06/28 08:59:00;;;;;;;4.47;1.17;;;;;;;;;;5030895;28;20807;-77
2022/06/28 09:01:26;;;;;;;4.95;1.20;;;;;;;;;;5023580;28;20330;-76
2022/06/28 09:03:52;;;;;;;3.97;1.10;;;;;;;;;;5022329;28;20249;-75
2022/06/28 09:06:17;;;;;;;6.38;1.67;;;;;;;;;;5020188;28;20038;-79
2022/06/28 09:08:42;;;;;;;7.70;1.47;;;;;;;;;;5001427;28;20029;-74
2022/06/28 09:11:08;;;;;;;4.47;1.13;;;;;;;;;;4997013;28;20270;-77
2022/06/28 09:13:36;;;;;;;6.32;1.23;;;;;;;;;;5011198;28;21285;-75
2022/06/28 09:16:03;;;;;;;5.78;1.40;;;;;;;;;;5018383;28;20419;-77
2022/06/28 09:18:34;;;;;;;3.22;0.93;;;;;;;;;;5021824;28;20037;-78
2022/06/28 09:20:59;;;;;;;3.08;0.98;;;;;;;;;;5020396;28;20029;-77
2022/06/28 09:23:26;;;;;;;2.37;1.23;;;;;;;;;;5028749;28;20022;-75
2022/06/28 09:25:53;;;;;;;5.55;1.30;;;;;;;;;;5022714;28;20032;-77
2022/06/28 09:28:22;;;;;;;3.78;1.95;;;;;;;;;;5018620;28;20051;-78
2022/06/28 09:30:47;;;;;;;3.75;1.20;;;;;;;;;;5020082;28;20021;-78
2022/06/28 09:33:24;;;;;;;3.80;1.27;;;;;;;;;;5027476;28;20376;-77
2022/06/28 09:35:52;;;;;;;3.72;1.20;;;;;;;;;;5028875;28;20328;-76
2022/06/28 09:38:32;;;;;;;3.67;1.40;;;;;;;;;;5021592;28;20360;-76
2022/06/28 09:40:58;;;;;;;9.10;1.65;;;;;;;;;;5020173;28;20032;-75
2022/06/28 09:43:29;;;;;;;4.35;1.30;;;;;;;;;;5025912;28;20025;-80
2022/06/28 09:45:54;;;;;;;6.68;1.73;;;;;;;;;;5022281;28;20057;-78
2022/06/28 09:48:20;;;;;;;5.27;1.67;;;;;;;;;;5021133;28;20075;-78
2022/06/28 09:50:46;;;;;;;4.32;1.55;;;;;;;;;;5029599;28;20098;-77
2022/06/28 09:53:15;;;;;;;5.45;1.63;;;;;;;;;;5022201;28;20097;-78
2022/06/28 09:55:41;;;;;;;2.45;1.23;;;;;;;;;;5033637;28;20021;-77
2022/06/28 09:58:07;;;;;;;5.38;1.80;;;;;;;;;;5023937;28;20029;-78
2022/06/28 10:00:34;;;;;;;3.42;1.48;;;;;;;;;;5022182;28;20413;-80
2022/06/28 10:03:02;;;;;;;2.60;1.33;;;;;;;;;;5021264;28;20422;-76
2022/06/28 10:05:27;;;;;;;8.13;1.85;;;;;;;;;;5024301;28;20502;-77
2022/06/28 10:07:53;;;;;;;6.47;1.67;;;;;;;;;;5019946;28;20029;-74
2022/06/28 10:10:20;;;;;;;3.17;1.20;;;;;;;;;;5024278;28;20025;-74
2022/06/28 10:15:36;;;;;;;6.43;1.67;;;;;;;;;;5024076;28;20112;-79
2022/06/28 10:18:21;;;;;;;3.72;1.73;;;;;;;;;;5021953;28;20030;-79
2022/06/28 10:20:47;;;;;;;6.50;1.90;;;;;;;;;;5022367;28;20021;-80
2022/06/28 10:23:33;;;;;;;7.40;1.60;;;;;;;;;;5034472;28;20024;-81
2022/06/28 10:26:03;;;;;;;8.60;2.38;;;;;;;;;;5024450;28;20033;-80
2022/06/28 10:28:35;;;;;;;4.93;1.70;;;;;;;;;;5027421;28;20111;-76
2022/06/28 10:31:19;;;;;;;5.50;1.40;;;;;;;;;;5024200;28;20083;-77
2022/06/28 10:33:44;;;;;;;5.18;1.40;;;;;;;;;;5024133;28;20029;-77
2022/06/28 10:36:13;;;;;;;6.00;2.10;;;;;;;;;;5028295;28;20040;-81
2022/06/28 10:38:38;;;;;;;4.35;1.20;;;;;;;;;;5024253;28;20275;-75
2022/06/28 10:41:11;;;;;;;4.40;1.50;;;;;;;;;;5020338;28;20032;-76
2022/06/28 10:43:45;;;;;;;6.80;1.65;;;;;;;;;;5029521;28;20534;-78
2022/06/28 10:46:10;;;;;;;2.35;0.98;;;;;;;;;;5025061;28;20155;-76
2022/06/28 10:48:56;;;;;;;8.27;1.42;;;;;;;;;;5027806;28;20123;-83
2022/06/28 10:51:21;;;;;;;4.82;1.50;;;;;;;;;;5030920;28;20036;-78
2022/06/28 10:54:01;;;;;;;2.67;0.95;;;;;;;;;;5035874;28;20075;-76
2022/06/28 10:56:37;;;;;;;3.05;1.20;;;;;;;;;;5027409;28;20033;-77
2022/06/28 10:59:13;;;;;;;4.57;1.55;;;;;;;;;;5028487;28;20029;-76
2022/06/28 11:01:42;;;;;;;7.00;1.85;;;;;;;;;;5019977;28;20024;-74
2022/06/28 11:04:12;;;;;;;5.35;1.60;;;;;;;;;;5034235;28;20475;-74
2022/06/28 11:06:40;;;;;;;19.42;1.65;;;;;;;;;;5027219;28;20049;-74
2022/06/28 11:09:15;;;;;;;4.95;1.40;;;;;;;;;;5024530;28;20031;-78
2022/06/28 11:12:04;;;;;;;4.35;1.55;;;;;;;;;;5021544;28;20445;-75
2022/06/28 11:14:32;;;;;;;2.78;1.27;;;;;;;;;;5026926;28;20117;-77
2022/06/28 11:16:58;;;;;;;2.88;1.60;;;;;;;;;;5023654;28;20017;-78
2022/06/28 11:19:23;;;;;;;3.40;1.20;;;;;;;;;;5022797;28;20380;-73
2022/06/28 11:21:52;;;;;;;5.15;1.60;;;;;;;;;;5024466;28;20036;-77
2022/06/28 11:24:18;;;;;;;5.68;1.77;;;;;;;;;;5027004;28;20025;-76
2022/06/28 11:29:27;;;;;;;;;;;;;;;;;;5018737;28;20751;-74
2022/06/28 11:31:52;;;;;;;4.05;1.60;;;;;;;;;;5021716;28;19913;-79
2022/06/28 11:34:26;;;;;;;4.23;1.40;;;;;;;;;;5037011;28;20060;-79
2022/06/28 11:36:59;;;;;;;4.40;1.40;;;;;;;;;;5024730;28;20058;-82
2022/06/28 11:39:24;;;;;;;2.55;1.23;;;;;;;;;;5020274;28;20129;-76
2022/06/28 11:41:53;;;;;;;4.25;1.10;;;;;;;;;;5025996;28;20515;-74
2022/06/28 11:44:19;;;;;;;3.60;1.10;;;;;;;;;;5028722;28;20044;-75
2022/06/28 11:46:45;;;;;;;3.08;1.40;;;;;;;;;;5021674;28;20434;-75
2022/06/28 11:49:10;;;;;;;5.07;1.90;;;;;;;;;;5023945;28;20384;-77
2022/06/28 11:51:35;;;;;;;3.17;1.55;;;;;;;;;;5026514;28;20028;-80
2022/06/28 11:54:11;;;;;;;6.35;1.40;;;;;;;;;;5028122;28;20029;-73
2022/06/28 11:56:43;;;;;;;3.50;1.40;;;;;;;;;;5019964;28;20551;-79
2022/06/28 11:59:08;;;;;;;5.03;1.40;;;;;;;;;;5021380;28;20034;-75
2022/06/28 12:01:37;;;;;;;5.27;1.57;;;;;;;;;;5029452;28;20029;-75
2022/06/28 12:04:06;;;;;;;3.53;1.55;;;;;;;;;;5029391;28;20104;-77
2022/06/28 12:06:33;;;;;;;3.50;1.58;;;;;;;;;;5024337;28;20155;-72
2022/06/28 12:09:05;;;;;;;4.88;1.60;;;;;;;;;;5024468;28;20032;-72
2022/06/28 12:11:33;;;;;;;5.15;1.27;;;;;;;;;;5036793;28;20502;-73
2022/06/28 12:13:59;;;;;;;3.25;1.52;;;;;;;;;;5031267;28;20026;-73
2022/06/28 12:16:32;;;;;;;4.03;1.25;;;;;;;;;;5030580;28;20092;-79
2022/06/28 12:18:57;;;;;;;9.00;1.75;;;;;;;;;;5031505;28;20017;-76
2022/06/28 12:21:22;;;;;;;3.30;1.30;;;;;;;;;;5022204;28;20401;-73
2022/06/28 12:23:48;;;;;;;3.42;1.48;;;;;;;;;;5036735;28;20472;-73
2022/06/28 12:26:13;;;;;;;2.83;1.45;;;;;;;;;;5031570;28;20064;-73
2022/06/28 12:28:39;;;;;;;5.03;1.40;;;;;;;;;;5024947;28;20115;-74
2022/06/28 12:31:04;;;;;;;4.37;1.40;;;;;;;;;;5040005;28;20017;-74
2022/06/28 12:33:29;;;;;;;3.53;1.37;;;;;;;;;;5036759;28;20029;-77
2022/06/28 12:35:54;;;;;;;6.25;1.77;;;;;;;;;;5028918;28;20030;-76
2022/06/28 12:38:19;;;;;;;6.87;1.70;;;;;;;;;;5020651;28;20034;-74
2022/06/28 12:40:44;;;;;;;6.17;1.77;;;;;;;;;;5035138;28;20013;-73
2022/06/28 12:43:10;;;;;;;3.30;1.17;;;;;;;;;;5022220;28;20028;-74
2022/06/28 12:45:35;;;;;;;3.63;1.50;;;;;;;;;;5022956;28;20487;-73
2022/06/28 12:48:00;;;;;;;2.28;1.35;;;;;;;;;;5019757;28;20037;-73
2022/06/28 12:50:25;;;;;;;4.83;1.20;;;;;;;;;;5020828;28;20081;-76
2022/06/28 12:52:51;;;;;;;3.50;1.55;;;;;;;;;;5026996;28;20026;-74
2022/06/28 12:55:16;;;;;;;4.37;1.30;;;;;;;;;;5026440;28;20095;-74
2022/06/28 12:57:41;;;;;;;3.72;1.50;;;;;;;;;;5016613;28;20017;-77
2022/06/28 13:00:08;;;;;;;4.40;1.20;;;;;;;;;;5023383;28;20018;-75
2022/06/28 13:02:33;;;;;;;3.85;1.45;;;;;;;;;;5023218;28;20033;-80
2022/06/28 13:04:58;;;;;;;6.63;1.63;;;;;;;;;;5024586;28;20034;-75
2022/06/28 13:07:24;;;;;;;4.00;1.60;;;;;;;;;;5023321;28;20056;-74
2022/06/28 13:09:49;;;;;;;4.53;1.48;;;;;;;;;;5026258;28;20124;-76
2022/06/28 13:12:15;;;;;;;8.32;1.65;;;;;;;;;;5029424;28;20404;-75
2022/06/28 13:14:40;;;;;;;3.88;1.40;;;;;;;;;;5024076;28;20435;-82
2022/06/28 13:17:05;;;;;;;5.45;1.63;;;;;;;;;;5016627;28;20053;-78
2022/06/28 13:19:30;;;;;;;9.93;2.00;;;;;;;;;;5023705;28;20068;-73
2022/06/28 13:21:55;;;;;;;2.03;1.30;;;;;;;;;;5024144;28;20026;-73
2022/06/28 13:24:21;;;;;;;4.17;2.03;;;;;;;;;;5022321;28;20263;-78
2022/06/28 13:26:46;;;;;;;4.20;1.63;;;;;;;;;;5019929;28;20092;-72
2022/06/28 13:29:14;;;;;;;4.67;2.07;;;;;;;;;;5020768;28;20030;-75
2022/06/28 13:31:39;;;;;;;4.50;1.88;;;;;;;;;;5028007;28;20021;-73
2022/06/28 13:34:04;;;;;;;5.40;1.40;;;;;;;;;;5029576;28;20507;-73
2022/06/28 13:36:30;;;;;;;6.90;1.70;;;;;;;;;;5029925;28;20272;-73
2022/06/28 13:38:55;;;;;;;1.63;1.10;;;;;;;;;;5032050;28;20119;-75
2022/06/28 13:41:21;;;;;;;4.80;1.98;;;;;;;;;;5024241;28;20071;-73
2022/06/28 13:43:46;;;;;;;5.47;1.70;;;;;;;;;;5025068;28;20037;-73
2022/06/28 13:46:12;;;;;;;4.20;1.50;;;;;;;;;;5016846;28;20366;-74
2022/06/28 13:48:38;;;;;;;3.35;1.45;;;;;;;;;;5020928;28;20037;-72
2022/06/28 13:51:03;;;;;;;4.80;1.50;;;;;;;;;;5024245;28;20021;-76
2022/06/28 13:53:30;;;;;;;6.25;1.45;;;;;;;;;;5028502;28;20444;-75
2022/06/28 13:55:55;;;;;;;7.13;1.70;;;;;;;;;;5025217;28;20025;-72
2022/06/28 13:58:20;;;;;;;4.78;1.88;;;;;;;;;;5015596;28;20053;-72
2022/06/28 14:00:46;;;;;;;3.53;1.40;;;;;;;;;;5016204;28;20067;-72
2022/06/28 14:03:11;;;;;;;6.00;1.33;;;;;;;;;;5027707;28;20051;-73
2022/06/28 14:05:37;;;;;;;3.40;1.13;;;;;;;;;;5025215;28;20022;-73
2022/06/28 14:08:02;;;;;;;3.92;1.40;;;;;;;;;;5022638;28;20032;-73
2022/06/28 14:10:27;;;;;;;6.00;1.40;;;;;;;;;;5028184;28;20022;-77
2022/06/28 14:12:52;;;;;;;4.33;1.40;;;;;;;;;;5026494;28;20034;-75
2022/06/28 14:15:17;;;;;;;1.57;1.07;;;;;;;;;;5026778;28;20029;-76
2022/06/28 14:17:42;;;;;;;4.13;1.50;;;;;;;;;;5030526;28;20029;-75
2022/06/28 14:20:08;;;;;;;3.30;1.47;;;;;;;;;;5031951;28;20107;-76
2022/06/28 14:22:34;;;;;;;8.00;1.80;;;;;;;;;;5031332;28;20037;-75
2022/06/28 14:24:59;;;;;;;5.82;1.70;;;;;;;;;;5022497;28;20032;-72
2022/06/28 14:27:25;;;;;;;2.70;1.40;;;;;;;;;;5025992;28;20433;-72
2022/06/28 14:29:50;;;;;;;5.10;1.30;;;;;;;;;;5017496;28;20017;-72
2022/06/28 14:32:15;;;;;;;4.37;1.60;;;;;;;;;;5026511;28;20336;-73
2022/06/28 14:34:40;;;;;;;3.13;1.50;;;;;;;;;;5020619;28;20026;-74
2022/06/28 14:37:06;;;;;;;9.40;1.95;;;;;;;;;;5022594;28;20506;-73
2022/06/28 14:39:31;;;;;;;4.10;1.58;;;;;;;;;;5022042;28;20038;-73
2022/06/28 14:41:56;;;;;;;6.47;1.75;;;;;;;;;;5025461;28;20113;-73
2022/06/28 14:44:21;;;;;;;4.47;1.60;;;;;;;;;;5025231;28;20029;-74
2022/06/28 14:46:47;;;;;;;3.00;1.55;;;;;;;;;;5029099;28;20043;-74